createdAt,value
2019-04-05T00:00:11.475Z,92.70
2019-04-05T00:02:41.934Z,92.90
2019-04-05T00:05:11.466Z,92.40
2019-04-05T00:07:40.822Z,92.90
2019-04-05T00:10:10.455Z,93.10
2019-04-05T00:12:39.740Z,92.70
2019-04-05T00:15:15.531Z,91.80
2019-04-05T00:17:41.264Z,92.40
2019-04-05T00:20:11.085Z,93.30
2019-04-05T00:22:40.435Z,93.30
2019-04-05T00:25:09.720Z,92.90
2019-04-05T00:27:39.009Z,93.10
2019-04-05T00:30:10.265Z,93.00
2019-04-05T00:32:39.536Z,93.10
2019-04-05T00:35:08.980Z,93.40
2019-04-05T00:37:38.287Z,92.70
2019-04-05T00:40:10.781Z,93.10
2019-04-05T00:42:40.092Z,93.10
2019-04-05T00:45:10.935Z,93.40
2019-04-05T00:47:39.510Z,93.60
2019-04-05T00:50:09.163Z,93.30
2019-04-05T00:52:38.429Z,93.40
2019-04-05T00:55:08.873Z,93.60
2019-04-05T00:57:38.233Z,93.40
2019-04-05T01:00:08.290Z,93.60
2019-04-05T01:02:37.632Z,93.60
2019-04-05T01:05:07.999Z,93.40
2019-04-05T01:07:37.603Z,93.20
2019-04-05T01:10:07.948Z,93.40
2019-04-05T01:12:38.796Z,93.40
2019-04-05T01:15:07.761Z,93.60
2019-04-05T01:17:37.829Z,93.40
2019-04-05T01:20:08.172Z,93.50
2019-04-05T01:22:38.393Z,94.00
2019-04-05T01:25:08.028Z,94.20
2019-04-05T01:27:39.829Z,93.70
2019-04-05T01:30:12.185Z,92.80
2019-04-05T01:32:41.615Z,93.00
2019-04-05T01:35:12.430Z,93.00
2019-04-05T01:37:42.151Z,93.20
2019-04-05T01:40:12.162Z,93.00
2019-04-05T01:42:41.500Z,93.10
2019-04-05T01:45:12.460Z,92.90
2019-04-05T01:47:42.708Z,92.50
2019-04-05T01:50:12.256Z,91.90
2019-04-05T01:52:42.596Z,91.30
2019-04-05T01:55:12.062Z,92.10
2019-04-05T01:57:41.359Z,92.60
2019-04-05T02:00:11.810Z,92.80
2019-04-05T02:02:41.452Z,92.60
2019-04-05T02:05:11.622Z,92.50
2019-04-05T02:07:41.136Z,92.30
2019-04-05T02:10:11.292Z,92.70
2019-04-05T02:12:41.835Z,92.40
2019-04-05T02:15:14.239Z,92.30
2019-04-05T02:17:43.540Z,92.40
2019-04-05T02:20:13.090Z,92.80
2019-04-05T02:22:42.400Z,92.10
2019-04-05T02:25:11.862Z,92.20
2019-04-05T02:27:41.162Z,92.00
2019-04-05T02:30:10.827Z,92.10
2019-04-05T02:32:40.127Z,92.40
2019-04-05T02:35:09.796Z,92.30
2019-04-05T02:37:39.237Z,91.70
2019-04-05T02:40:14.023Z,91.90
2019-04-05T02:42:45.027Z,92.20
2019-04-05T02:45:15.697Z,92.70
2019-04-05T02:47:51.641Z,93.10
2019-04-05T02:50:20.806Z,92.10
2019-04-05T02:52:53.311Z,92.10
2019-04-05T02:55:23.770Z,92.00
2019-04-05T02:57:54.637Z,92.10
2019-04-05T03:00:25.279Z,92.20
2019-04-05T03:02:55.218Z,92.50
2019-04-05T03:05:25.595Z,92.40
2019-04-05T03:07:55.140Z,92.20
2019-04-05T03:11:02.614Z,92.40
2019-04-05T03:13:35.005Z,92.00
2019-04-05T03:16:08.327Z,92.30
2019-04-05T03:18:41.001Z,91.80
2019-04-05T03:21:13.789Z,91.90
2019-04-05T03:23:45.904Z,92.40
2019-04-05T03:26:18.652Z,92.70
2019-04-05T03:28:51.107Z,92.30
2019-04-05T03:31:24.222Z,92.70
2019-04-05T03:33:52.014Z,92.90
2019-04-05T03:36:21.996Z,92.90
2019-04-05T03:38:52.629Z,92.60
2019-04-05T03:41:23.484Z,92.20
2019-04-05T03:43:52.116Z,92.80
2019-04-05T03:46:21.489Z,92.90
2019-04-05T03:48:51.476Z,93.40
2019-04-05T03:51:21.139Z,93.50
2019-04-05T03:53:50.500Z,93.60
2019-04-05T03:56:20.001Z,93.10
2019-04-05T03:58:49.361Z,93.50
2019-04-05T04:01:18.853Z,93.60
2019-04-05T04:03:48.433Z,93.70
2019-04-05T04:06:18.067Z,93.20
2019-04-05T04:08:48.544Z,93.20
2019-04-05T04:11:37.348Z,93.10
2019-04-05T04:14:07.208Z,92.90
2019-04-05T04:16:36.954Z,92.80
2019-04-05T04:19:06.414Z,93.40
2019-04-05T04:21:47.639Z,93.50
2019-04-05T04:24:29.273Z,93.60
2019-04-05T04:26:58.730Z,93.40
2019-04-05T04:29:28.312Z,93.70
2019-04-05T04:31:57.680Z,93.40
2019-04-05T04:34:27.658Z,93.40
2019-04-05T04:36:57.230Z,93.30
2019-04-05T04:39:26.709Z,92.80
2019-04-05T04:41:57.573Z,93.00
2019-04-05T04:44:26.094Z,93.20
2019-04-05T04:46:55.459Z,92.90
2019-04-05T04:49:26.164Z,93.10
2019-04-05T04:51:55.563Z,93.30
2019-04-05T04:54:25.318Z,92.90
2019-04-05T04:56:55.085Z,92.70
2019-04-05T04:59:24.716Z,92.90
2019-04-05T05:01:54.273Z,92.70
2019-04-05T05:04:24.003Z,93.00
2019-04-05T05:06:53.387Z,92.90
2019-04-05T05:09:23.052Z,93.00
2019-04-05T05:11:52.410Z,92.80
2019-04-05T05:14:22.373Z,92.50
2019-04-05T05:16:52.501Z,92.40
2019-04-05T05:19:22.364Z,92.40
2019-04-05T05:21:51.995Z,92.50
2019-04-05T05:24:21.898Z,92.80
2019-04-05T05:26:51.396Z,92.50
2019-04-05T05:29:21.288Z,92.60
2019-04-05T05:31:50.722Z,92.50
2019-04-05T05:34:20.376Z,92.30
2019-04-05T05:36:49.911Z,92.10
2019-04-05T05:39:19.659Z,92.30
2019-04-05T05:41:49.288Z,92.60
2019-04-05T05:44:18.844Z,92.80
2019-04-05T05:46:48.211Z,92.70
2019-04-05T05:49:17.604Z,92.20
2019-04-05T05:51:47.554Z,92.00
2019-04-05T05:54:16.919Z,91.80
2019-04-05T05:56:46.243Z,91.40
2019-04-05T05:59:15.546Z,91.20
2019-04-05T06:01:44.855Z,91.00
2019-04-05T06:04:14.152Z,90.40
2019-04-05T06:06:43.463Z,90.40
2019-04-05T06:09:12.752Z,90.40
2019-04-05T06:11:42.103Z,90.00
2019-04-05T06:14:11.409Z,89.30
2019-04-05T06:16:46.374Z,89.20
2019-04-05T06:19:11.792Z,89.50
2019-04-05T06:21:41.110Z,90.10
2019-04-05T06:24:10.436Z,89.50
2019-04-05T06:26:39.731Z,88.30
2019-04-05T06:29:09.063Z,88.70
2019-04-05T06:31:38.476Z,87.00
2019-04-05T06:34:07.879Z,86.80
2019-04-05T06:36:37.177Z,87.20
2019-04-05T06:39:08.036Z,87.40
2019-04-05T06:42:01.966Z,88.60
2019-04-05T06:44:31.266Z,87.80
2019-04-05T06:47:00.555Z,87.60
2019-04-05T06:49:31.879Z,86.90
2019-04-05T06:52:01.192Z,86.80
2019-04-05T06:54:30.694Z,87.00
2019-04-05T06:57:01.142Z,87.30
2019-04-05T06:59:30.527Z,87.70
2019-04-05T07:01:59.914Z,87.90
2019-04-05T07:04:31.048Z,87.80
2019-04-05T07:07:00.233Z,87.90
2019-04-05T07:09:29.547Z,87.90
2019-04-05T07:11:58.845Z,86.80
2019-04-05T07:14:28.171Z,87.70
2019-04-05T07:16:57.481Z,86.00
2019-04-05T07:19:27.217Z,85.00
2019-04-05T07:21:56.603Z,83.20
2019-04-05T07:24:38.260Z,83.60
2019-04-05T07:27:07.594Z,81.60
2019-04-05T07:29:36.892Z,82.60
2019-04-05T07:32:06.209Z,82.10
2019-04-05T07:34:35.502Z,81.70
2019-04-05T07:37:04.896Z,81.40
2019-04-05T07:39:34.214Z,80.30
2019-04-05T07:42:03.533Z,78.20
2019-04-05T07:44:32.855Z,77.40
2019-04-05T07:47:02.161Z,77.00
2019-04-05T07:49:31.540Z,76.90
2019-04-05T07:52:01.912Z,76.90
2019-04-05T07:54:32.304Z,75.00
2019-04-05T07:57:01.679Z,76.20
2019-04-05T07:59:43.127Z,75.40
2019-04-05T08:02:12.416Z,74.90
2019-04-05T08:04:41.723Z,75.30
2019-04-05T08:07:11.391Z,75.20
2019-04-05T08:09:41.350Z,75.30
2019-04-05T08:12:10.752Z,75.50
2019-04-05T08:14:40.749Z,75.40
2019-04-05T08:17:10.097Z,74.60
2019-04-05T08:19:39.424Z,73.80
2019-04-05T08:22:08.760Z,74.00
2019-04-05T08:24:38.063Z,72.90
2019-04-05T08:27:07.400Z,73.60
2019-04-05T08:29:36.695Z,75.00
2019-04-05T08:32:14.541Z,74.40
2019-04-05T08:34:37.267Z,74.70
2019-04-05T08:37:06.591Z,74.10
2019-04-05T08:39:35.924Z,74.70
2019-04-05T08:42:05.445Z,75.10
2019-04-05T08:44:34.769Z,73.40
2019-04-05T08:47:04.499Z,73.00
2019-04-05T08:49:34.805Z,75.60
2019-04-05T08:52:04.341Z,75.40
2019-04-05T08:54:53.093Z,77.40
2019-04-05T08:57:22.442Z,75.20
2019-04-05T08:59:53.356Z,73.70
2019-04-05T09:02:22.810Z,74.90
2019-04-05T09:04:52.142Z,75.80
2019-04-05T09:07:21.450Z,75.30
2019-04-05T09:09:50.780Z,76.80
2019-04-05T09:12:20.127Z,75.90
2019-04-05T09:14:49.499Z,74.00
2019-04-05T09:17:19.890Z,72.50
2019-04-05T09:19:49.195Z,71.80
2019-04-05T09:22:18.506Z,70.10
2019-04-05T09:24:47.863Z,70.60
2019-04-05T09:27:17.196Z,70.50
2019-04-05T09:29:46.526Z,70.90
2019-04-05T09:32:15.846Z,69.40
2019-04-05T09:34:45.171Z,70.20
2019-04-05T09:37:14.519Z,68.40
2019-04-05T09:39:43.810Z,69.70
2019-04-05T09:42:13.147Z,67.80
2019-04-05T09:44:42.480Z,65.40
2019-04-05T09:47:11.825Z,65.40
2019-04-05T09:49:41.158Z,68.20
2019-04-05T09:52:10.549Z,64.80
2019-04-05T09:54:39.969Z,64.60
2019-04-05T09:57:09.361Z,62.30
2019-04-05T09:59:39.756Z,65.00
2019-04-05T10:02:09.220Z,62.60
2019-04-05T10:04:38.695Z,62.10
2019-04-05T10:07:08.414Z,61.20
2019-04-05T10:09:37.743Z,61.00
2019-04-05T10:12:07.080Z,61.20
2019-04-05T10:14:36.531Z,60.30
2019-04-05T10:17:05.872Z,64.90
2019-04-05T10:19:35.177Z,64.50
2019-04-05T10:22:04.572Z,64.50
2019-04-05T10:24:33.918Z,65.20
2019-04-05T10:27:03.344Z,64.00
2019-04-05T10:29:32.784Z,62.70
2019-04-05T10:32:03.163Z,61.80
2019-04-05T10:34:32.809Z,63.40
2019-04-05T10:37:02.147Z,63.80
2019-04-05T10:39:31.451Z,61.80
2019-04-05T10:42:03.656Z,60.50
2019-04-05T10:44:31.828Z,60.10
2019-04-05T10:47:01.248Z,60.90
2019-04-05T10:49:30.547Z,61.50
2019-04-05T10:51:59.885Z,62.50
2019-04-05T10:54:29.311Z,61.90
2019-04-05T10:56:58.615Z,62.00
2019-04-05T10:59:27.945Z,62.40
2019-04-05T11:01:57.282Z,61.90
2019-04-05T11:04:26.588Z,61.40
2019-04-05T11:06:55.926Z,62.80
2019-04-05T11:09:25.239Z,61.90
2019-04-05T11:11:54.582Z,63.10
2019-04-05T11:14:23.956Z,61.80
2019-04-05T11:16:58.756Z,59.60
2019-04-05T11:19:24.313Z,60.20
2019-04-05T11:21:53.624Z,60.80
2019-04-05T11:24:22.946Z,59.00
2019-04-05T11:26:52.368Z,57.20
2019-04-05T11:29:21.677Z,58.10
2019-04-05T11:31:57.066Z,58.40
2019-04-05T11:34:22.191Z,58.30
2019-04-05T11:36:51.864Z,58.00
2019-04-05T11:39:21.471Z,57.50
2019-04-05T11:41:53.194Z,58.40
2019-04-05T11:44:24.666Z,57.40
2019-04-05T11:46:55.628Z,55.10
2019-04-05T11:49:25.421Z,50.90
2019-04-05T11:51:54.720Z,49.50
2019-04-05T11:54:24.061Z,48.20
2019-04-05T11:56:53.382Z,49.10
2019-04-05T11:59:22.680Z,50.40
2019-04-05T12:01:56.095Z,48.20
2019-04-05T12:04:44.744Z,47.50
2019-04-05T12:07:14.100Z,44.30
2019-04-05T12:09:43.573Z,43.80
2019-04-05T12:12:12.952Z,43.30
2019-04-05T12:17:19.600Z,44.20
2019-04-05T12:19:48.886Z,47.00
2019-04-05T12:22:19.956Z,47.20
2019-04-05T12:24:49.213Z,49.40
2019-04-05T12:27:20.743Z,50.50
2019-04-05T12:29:49.636Z,51.70
2019-04-05T12:32:32.999Z,51.10
2019-04-05T12:34:52.881Z,51.30
2019-04-05T12:37:22.525Z,53.10
2019-04-05T12:39:53.059Z,53.30
2019-04-05T12:42:22.402Z,53.70
2019-04-05T12:44:51.721Z,54.70
2019-04-05T12:47:21.201Z,54.80
2019-04-05T12:49:50.572Z,55.40
2019-04-05T12:52:22.887Z,56.10
2019-04-05T12:54:54.718Z,56.90
2019-04-05T12:57:22.171Z,56.90
2019-04-05T12:59:53.630Z,57.50
2019-04-05T13:02:33.038Z,57.70
2019-04-05T13:04:53.536Z,58.10
2019-04-05T13:07:24.015Z,58.40
2019-04-05T13:09:55.232Z,58.50
2019-04-05T13:12:26.982Z,58.50
2019-04-05T13:15:10.913Z,58.90
2019-04-05T13:17:26.747Z,59.10
2019-04-05T13:19:56.079Z,61.30
2019-04-05T13:22:25.490Z,60.40
2019-04-05T13:24:54.809Z,61.70
2019-04-05T13:27:24.140Z,61.40
2019-04-05T13:29:53.451Z,62.70
2019-04-05T13:32:22.778Z,62.40
2019-04-05T13:34:55.377Z,61.60
2019-04-05T13:37:23.155Z,62.00
2019-04-05T13:39:52.463Z,61.80
2019-04-05T13:42:21.938Z,63.40
2019-04-05T13:44:51.332Z,62.80
2019-04-05T13:47:20.735Z,62.20
2019-04-05T13:49:50.044Z,61.00
2019-04-05T13:52:19.388Z,61.50
2019-04-05T13:54:48.701Z,62.30
2019-04-05T13:57:18.073Z,60.20
2019-04-05T13:59:47.535Z,62.20
2019-04-05T14:02:20.545Z,61.70
2019-04-05T14:04:47.876Z,63.60
2019-04-05T14:07:17.224Z,63.80
2019-04-05T14:09:46.562Z,62.00
2019-04-05T14:12:16.035Z,61.80
2019-04-05T14:14:48.624Z,62.10
2019-04-05T14:17:16.382Z,63.90
2019-04-05T14:19:46.792Z,63.60
2019-04-05T14:22:17.804Z,63.50
2019-04-05T14:24:47.122Z,63.20
2019-04-05T14:27:16.451Z,64.50
2019-04-05T14:29:47.647Z,63.60
2019-04-05T14:32:20.820Z,64.70
2019-04-05T14:34:48.169Z,65.90
2019-04-05T14:37:21.375Z,64.70
2019-04-05T14:39:48.597Z,63.60
2019-04-05T14:42:17.927Z,64.50
2019-04-05T14:44:47.237Z,64.40
2019-04-05T14:47:16.577Z,64.10
2019-04-05T14:49:46.043Z,63.40
2019-04-05T14:52:15.425Z,62.80
2019-04-05T14:54:44.754Z,63.30
2019-04-05T14:57:14.104Z,62.80
2019-04-05T14:59:43.416Z,64.50
2019-04-05T15:02:12.743Z,64.50
2019-04-05T15:04:42.065Z,64.40
2019-04-05T15:07:11.403Z,63.60
2019-04-05T15:09:40.715Z,64.90
2019-04-05T15:12:10.197Z,64.30
2019-04-05T15:14:40.332Z,65.70
2019-04-05T15:17:09.911Z,64.40
2019-04-05T15:19:39.226Z,63.10
2019-04-05T15:22:11.101Z,63.20
2019-04-05T15:24:39.704Z,63.30
2019-04-05T15:27:09.038Z,63.10
2019-04-05T15:29:38.346Z,64.90
2019-04-05T15:32:07.712Z,63.20
2019-04-05T15:34:37.092Z,63.10
2019-04-05T15:37:06.600Z,64.00
2019-04-05T15:39:35.941Z,63.60
2019-04-05T15:42:05.347Z,63.10
2019-04-05T15:44:34.677Z,62.10
2019-04-05T15:47:04.345Z,63.60
2019-04-05T15:49:33.679Z,64.80
2019-04-05T15:52:03.151Z,63.80
2019-04-05T15:54:33.425Z,64.40
2019-04-05T15:57:03.763Z,64.30
2019-04-05T15:59:33.955Z,63.30
2019-04-05T16:02:03.921Z,63.90
2019-04-05T16:04:33.918Z,65.30
2019-04-05T16:07:03.237Z,66.50
2019-04-05T16:09:32.647Z,66.30
2019-04-05T16:12:01.956Z,66.20
2019-04-05T16:14:31.298Z,66.30
2019-04-05T16:17:12.643Z,66.90
2019-04-05T16:19:42.124Z,66.80
2019-04-05T16:22:11.511Z,67.80
2019-04-05T16:24:40.828Z,69.20
2019-04-05T16:27:10.228Z,69.70
2019-04-05T16:29:39.559Z,68.90
2019-04-05T16:32:08.893Z,68.30
2019-04-05T16:34:38.279Z,68.80
2019-04-05T16:37:07.887Z,69.20
2019-04-05T16:39:37.368Z,69.90
2019-04-05T16:42:06.698Z,69.50
2019-04-05T16:44:35.996Z,70.00
2019-04-05T16:47:05.398Z,70.40
2019-04-05T16:49:34.801Z,70.70
2019-04-05T16:52:04.129Z,71.40
2019-04-05T16:54:33.502Z,71.50
2019-04-05T16:57:02.825Z,71.50
2019-04-05T16:59:32.253Z,71.20
2019-04-05T17:02:01.648Z,71.20
2019-04-05T17:04:30.983Z,71.00
2019-04-05T17:07:00.288Z,71.50
2019-04-05T17:09:29.789Z,72.50
2019-04-05T17:11:59.112Z,72.60
2019-04-05T17:14:28.485Z,72.70
2019-04-05T17:16:57.844Z,72.70
2019-04-05T17:19:27.228Z,72.50
2019-04-05T17:21:57.624Z,73.40
2019-04-05T17:24:27.027Z,73.50
2019-04-05T17:27:12.225Z,73.30
2019-04-05T17:29:41.565Z,73.60
2019-04-05T17:32:10.873Z,73.60
2019-04-05T17:34:40.226Z,73.30
2019-04-05T17:37:09.530Z,72.80
2019-04-05T17:39:38.872Z,73.30
2019-04-05T17:42:08.179Z,73.10
2019-04-05T17:44:37.881Z,74.00
2019-04-05T17:47:07.178Z,74.00
2019-04-05T17:49:36.576Z,74.60
2019-04-05T17:52:06.028Z,74.20
2019-04-05T17:54:36.470Z,74.90
2019-04-05T17:57:05.945Z,74.60
2019-04-05T17:59:36.116Z,74.00
2019-04-05T18:02:05.742Z,74.70
2019-04-05T18:04:35.044Z,75.70
2019-04-05T18:07:04.370Z,75.30
2019-04-05T18:09:33.886Z,75.20
2019-04-05T18:12:05.466Z,75.70
2019-04-05T18:14:35.912Z,76.70
2019-04-05T18:17:05.357Z,76.40
2019-04-05T18:19:34.679Z,76.00
2019-04-05T18:22:04.228Z,75.80
2019-04-05T18:24:33.563Z,75.60
2019-04-05T18:27:02.858Z,75.80
2019-04-05T18:29:32.181Z,75.70
2019-04-05T18:32:01.488Z,75.80
2019-04-05T18:34:31.084Z,76.40
2019-04-05T18:37:00.484Z,76.70
2019-04-05T18:39:29.800Z,76.00
2019-04-05T18:41:59.139Z,76.10
2019-04-05T18:44:28.474Z,75.90
2019-04-05T18:46:58.746Z,75.80
2019-04-05T18:49:28.790Z,76.00
2019-04-05T18:51:58.216Z,76.10
2019-04-05T18:54:27.607Z,76.60
2019-04-05T18:56:56.921Z,76.40
2019-04-05T18:59:26.730Z,76.70
2019-04-05T19:01:57.881Z,77.00
2019-04-05T19:04:28.280Z,77.70
2019-04-05T19:06:57.929Z,77.80
2019-04-05T19:09:27.366Z,79.00
2019-04-05T19:11:57.491Z,78.70
2019-04-05T19:14:28.351Z,79.00
2019-04-05T19:16:59.347Z,79.30
2019-04-05T19:19:29.832Z,79.80
2019-04-05T19:21:59.155Z,79.20
2019-04-05T19:24:29.615Z,79.20
2019-04-05T19:26:59.933Z,79.90
2019-04-05T19:29:29.535Z,81.00
2019-04-05T19:49:38.631Z,79.40
2019-04-05T19:52:09.798Z,79.40
2019-04-05T19:54:41.082Z,80.20
2019-04-05T19:57:10.486Z,80.30
2019-04-05T19:59:39.778Z,80.50
2019-04-05T20:02:09.514Z,81.00
2019-04-05T20:04:39.589Z,80.40
2019-04-05T20:07:09.007Z,81.10
2019-04-05T20:09:38.387Z,81.60
2019-04-05T20:12:08.080Z,81.50
2019-04-05T20:14:41.273Z,81.80
2019-04-05T20:17:11.424Z,82.30
2019-04-05T20:19:47.825Z,82.40
2019-04-05T20:22:19.107Z,81.30
2019-04-05T20:24:50.725Z,80.70
2019-04-05T20:27:20.283Z,81.00
2019-04-05T20:29:49.589Z,81.70
2019-04-05T20:32:18.927Z,82.30
2019-04-05T20:34:49.369Z,82.10
2019-04-05T20:37:18.771Z,81.50
2019-04-05T20:39:49.244Z,82.10
2019-04-05T20:42:20.618Z,81.80
2019-04-05T20:44:49.923Z,83.10
2019-04-05T20:47:19.333Z,82.70
2019-04-05T20:49:48.631Z,82.70
2019-04-05T20:52:17.975Z,83.30
2019-04-05T20:54:47.275Z,84.00
2019-04-05T20:57:17.778Z,83.40
2019-04-05T20:59:47.114Z,83.40
2019-04-05T21:02:16.481Z,83.80
2019-04-05T21:04:45.863Z,84.00
2019-04-05T21:07:17.780Z,84.20
2019-04-05T21:09:46.575Z,84.50
2019-04-05T21:12:18.117Z,84.70
2019-04-05T21:14:52.073Z,84.50
2019-04-05T21:17:21.388Z,85.30
2019-04-05T21:19:50.713Z,86.20
2019-04-05T21:22:20.009Z,86.40
2019-04-05T21:24:49.335Z,86.00
2019-04-05T21:27:18.645Z,86.00
2019-04-05T21:29:47.984Z,86.60
2019-04-05T21:32:17.419Z,85.90
2019-04-05T21:34:46.721Z,85.00
2019-04-05T21:37:16.046Z,85.00
2019-04-05T21:39:45.396Z,85.50
2019-04-05T21:42:14.792Z,85.30
2019-04-05T21:44:46.373Z,84.10
2019-04-05T21:47:15.915Z,84.30
2019-04-05T21:49:45.241Z,84.70
2019-04-05T21:52:14.576Z,85.10
2019-04-05T21:54:47.630Z,85.00
2019-04-05T21:57:14.895Z,85.00
2019-04-05T21:59:44.192Z,85.70
2019-04-05T22:02:13.737Z,84.40
2019-04-05T22:04:43.194Z,84.40
2019-04-05T22:07:12.605Z,84.30
2019-04-05T22:09:41.898Z,84.60
2019-04-05T22:12:11.258Z,84.20
2019-04-05T22:14:40.596Z,84.60
2019-04-05T22:17:09.902Z,84.70
2019-04-05T22:19:40.414Z,84.60
2019-04-05T22:22:09.717Z,85.40
2019-04-05T22:24:39.037Z,85.50
2019-04-05T22:27:08.335Z,86.10
2019-04-05T22:29:37.658Z,86.60
2019-04-05T22:32:07.000Z,87.00
2019-04-05T22:34:36.380Z,87.40
2019-04-05T22:37:05.764Z,87.40
2019-04-05T22:39:35.055Z,87.50
2019-04-05T22:42:04.396Z,88.50
2019-04-05T22:44:39.979Z,88.30
2019-04-05T22:47:04.914Z,89.10
2019-04-05T22:49:34.224Z,89.40
2019-04-05T22:52:03.551Z,89.50
2019-04-05T22:54:32.866Z,89.70
2019-04-05T22:57:03.261Z,89.80
2019-04-05T22:59:32.557Z,90.10
2019-04-05T23:02:01.911Z,90.20
2019-04-05T23:04:31.332Z,90.50
2019-04-05T23:07:00.653Z,91.10
2019-04-05T23:09:30.061Z,90.90
2019-04-05T23:11:59.657Z,90.90
2019-04-05T23:14:28.953Z,91.00
2019-04-05T23:16:58.306Z,90.90
2019-04-05T23:19:27.609Z,90.60
2019-04-05T23:21:57.012Z,90.30
2019-04-05T23:24:26.319Z,90.00
2019-04-05T23:26:55.648Z,90.20
2019-04-05T23:29:24.975Z,90.30
2019-04-05T23:31:54.295Z,90.80
2019-04-05T23:34:23.596Z,91.20
2019-04-05T23:36:52.918Z,91.30
2019-04-05T23:39:22.245Z,91.20
2019-04-05T23:41:51.600Z,91.20
2019-04-05T23:44:20.928Z,91.00
2019-04-05T23:46:52.598Z,91.00
2019-04-05T23:49:21.255Z,91.20
2019-04-05T23:51:50.665Z,91.40
2019-04-05T23:54:20.000Z,91.50
2019-04-05T23:56:49.334Z,91.40
2019-04-05T23:59:18.743Z,91.20
